Portada
METAR-TAF:

METAR-TAF

Aeroports :

Aeroport Internacional Diori Hamani

Niamey, Níger

latitud: 13-29N, longitud: 002-10E, altitud: 223 m

Observació

L'informe es va fer fa 1 hora i 12 minuts, a les 06:00 UTC
Vent 2 kt del Nord
Temperatura 21°C
Humitat 38%
Pressió 1013 hPa
Visibilitat 10 km o més
sense núvols per sota de 1500 mi sense presència de cumulonimbus.

METAR: DRRN 030600Z 35002KT CAVOK 21/06 Q1013 NOSIG

Hora: 08:12 (07:12 UTC)

Pronòstic

L'informe es va fer fa 2 hores i 12 minuts, a les 05:00 UTC
Pronòstic vàlid del 03 a les 06 UTC al 04 a les 12 UTC
Vent 8 kt del Nord-Est
Visibilitat: 8000 m

TAF: DRRN 030500Z 0306/0412 04008KT 8000 NSC

Observacions i pronòstics meteorològics de més de 4000 aeroports (METAR i TAF).

Les estacions disponibles són els punts grocs i vermells al mapa.

Posi el ratolí al punt desitjat per veure el nom de l'estació.

Feu clic per veure les observacions i els pronòstics meteorològics.

Per canviar el mapa: feu clic els botons verds amb una creu de color negre per apropar; al botó verd amb un guió per allunyar la imatge; o en les fletxes verdes per a mapes adjacents.


METAR-TAF: